Time;durP1;ratioP1;P1;durP2;ratioP2;P2;SDS_P1;SDS_P2;PMS_P1;PMS_P2;Temp;Humidity;BMP_temperature;BMP_pressure;BME280_temperature;BME280_humidity;BME280_pressure;Samples;Min_cycle;Max_cycle;Signal;HPM_P1;HPM_P2
2020/12/07 00:01:16;;;;;;;8.53;6.62;;;;;;;7.99;52.71;101437.06;1764985;81;21262;-77
2020/12/07 00:03:43;;;;;;;8.58;6.80;;;;;;;7.97;52.67;101436.81;1764935;81;21459;-78
2020/12/07 00:06:19;;;;;;;8.58;6.67;;;;;;;7.96;52.66;101450.53;1765316;81;21154;-78
2020/12/07 00:08:48;;;;;;;9.08;6.80;;;;;;;7.94;52.63;101448.93;1765124;81;21167;-78
2020/12/07 00:11:17;;;;;;;7.70;6.15;;;;;;;7.92;52.62;101446.42;1763651;81;21176;-77
2020/12/07 00:13:45;;;;;;;10.18;6.78;;;;;;;7.91;52.57;101451.81;1762257;81;21117;-78
2020/12/07 00:16:12;;;;;;;8.08;6.10;;;;;;;7.88;52.59;101447.11;1762544;81;21183;-77
2020/12/07 00:18:39;;;;;;;8.13;6.10;;;;;;;7.87;52.56;101450.70;1762856;80;21157;-79
2020/12/07 00:21:08;;;;;;;8.48;6.60;;;;;;;7.87;52.54;101457.80;1762737;81;22523;-80
2020/12/07 00:23:36;;;;;;;8.15;6.72;;;;;;;7.86;52.52;101458.73;1762184;81;21145;-79
2020/12/07 00:26:07;;;;;;;9.98;6.97;;;;;;;7.85;52.50;101449.12;1762176;80;21185;-79
2020/12/07 00:28:35;;;;;;;7.10;6.08;;;;;;;7.83;52.47;101453.19;1762285;81;21119;-79
2020/12/07 00:31:04;;;;;;;8.08;6.75;;;;;;;7.82;52.47;101439.61;1759308;81;21146;-79
2020/12/07 00:33:32;;;;;;;9.50;7.50;;;;;;;7.81;52.45;101444.52;1766683;80;21879;-79
2020/12/07 00:35:59;;;;;;;9.08;6.42;;;;;;;7.80;52.42;101452.56;1761882;81;21147;-79
2020/12/07 00:38:26;;;;;;;7.90;6.17;;;;;;;7.79;52.39;101441.62;1762244;81;21196;-79
2020/12/07 00:40:54;;;;;;;8.23;6.10;;;;;;;7.77;52.37;101447.02;1762150;81;21159;-78
2020/12/07 00:43:21;;;;;;;8.48;6.75;;;;;;;7.78;52.35;101449.17;1763431;81;21095;-78
2020/12/07 00:45:51;;;;;;;8.50;6.17;;;;;;;7.77;52.36;101450.15;1762279;81;21261;-74
2020/12/07 00:48:20;;;;;;;7.60;6.12;;;;;;;7.75;52.32;101446.28;1762141;81;21137;-75
2020/12/07 00:50:48;;;;;;;10.20;7.08;;;;;;;7.74;52.32;101447.70;1762298;81;21200;-76
2020/12/07 00:53:15;;;;;;;7.80;5.97;;;;;;;7.73;52.30;101448.19;1762235;81;21580;-76
2020/12/07 00:55:43;;;;;;;8.35;6.58;;;;;;;7.72;52.25;101447.80;1762174;80;21136;-77
2020/12/07 00:58:10;;;;;;;8.50;6.40;;;;;;;7.71;52.23;101445.27;1762154;81;21814;-78
2020/12/07 01:00:38;;;;;;;8.70;6.17;;;;;;;7.68;52.23;101448.50;1761863;81;21215;-78
2020/12/07 01:03:05;;;;;;;9.13;7.03;;;;;;;7.68;52.21;101453.78;1762069;81;21110;-78
2020/12/07 01:05:33;;;;;;;8.03;6.30;;;;;;;7.67;52.20;101445.98;1762209;81;21107;-78
2020/12/07 01:08:01;;;;;;;8.28;6.00;;;;;;;7.65;52.19;101448.73;1762143;81;21087;-78
2020/12/07 01:10:29;;;;;;;7.78;5.83;;;;;;;7.65;52.16;101449.22;1762190;81;21152;-78
2020/12/07 01:12:58;;;;;;;8.23;6.22;;;;;;;7.64;52.14;101452.80;1777536;80;21163;-78
2020/12/07 01:15:27;;;;;;;8.48;6.10;;;;;;;7.63;52.11;101445.80;1784251;80;21158;-78
2020/12/07 01:17:55;;;;;;;7.92;6.58;;;;;;;7.61;52.08;101435.35;1784282;80;21149;-78
2020/12/07 01:20:23;;;;;;;7.47;5.65;;;;;;;7.61;52.09;101440.64;1784549;80;21155;-78
2020/12/07 01:22:50;;;;;;;7.22;5.75;;;;;;;7.59;52.05;101439.91;1785272;80;21814;-78
2020/12/07 01:25:18;;;;;;;8.03;6.28;;;;;;;7.59;52.03;101431.97;1784497;80;21171;-78
2020/12/07 01:27:46;;;;;;;8.33;5.80;;;;;;;7.58;51.99;101438.69;1784155;80;21190;-78
2020/12/07 01:30:15;;;;;;;8.65;6.58;;;;;;;7.57;51.98;101436.98;1780947;80;21095;-78
2020/12/07 01:32:42;;;;;;;7.17;5.87;;;;;;;7.55;51.97;101433.14;1756616;80;21131;-79
2020/12/07 01:35:11;;;;;;;9.35;5.97;;;;;;;7.54;51.95;101433.25;1760712;81;21378;-79
2020/12/07 01:37:38;;;;;;;7.58;6.47;;;;;;;7.53;51.95;101440.31;1756901;80;21597;-78
2020/12/07 01:40:06;;;;;;;6.70;5.75;;;;;;;7.52;51.92;101445.73;1731269;81;21159;-78
2020/12/07 01:42:34;;;;;;;8.93;6.87;;;;;;;7.51;51.92;101446.18;1758569;81;21620;-78
2020/12/07 01:45:01;;;;;;;7.65;5.90;;;;;;;7.51;51.89;101445.34;1757072;81;21456;-79
2020/12/07 01:47:29;;;;;;;7.08;5.85;;;;;;;7.49;51.87;101438.83;1739438;81;21207;-78
2020/12/07 01:50:07;;;;;;;7.62;5.85;;;;;;;7.52;51.85;101437.31;1775845;79;27389;-78
2020/12/07 01:52:35;;;;;;;6.97;5.37;;;;;;;7.47;51.82;101432.35;1714104;82;21188;-78
2020/12/07 01:55:03;;;;;;;8.00;5.72;;;;;;;7.46;51.80;101432.45;1737362;82;21172;-78
2020/12/07 01:57:32;;;;;;;9.18;6.42;;;;;;;7.45;51.78;101434.71;1756044;81;21192;-79
2020/12/07 02:00:07;;;;;;;8.88;6.22;;;;;;;7.43;51.76;101419.44;1761682;81;21591;-78
2020/12/07 02:02:37;;;;;;;7.20;5.30;;;;;;;7.43;51.73;101426.87;1765625;81;21091;-78
2020/12/07 02:05:05;;;;;;;7.22;6.10;;;;;;;7.41;51.74;101426.14;1719484;80;21127;-78
2020/12/07 02:07:33;;;;;;;8.03;5.30;;;;;;;7.41;51.74;101427.95;1800569;78;22151;-78
2020/12/07 02:10:01;;;;;;;8.05;5.72;;;;;;;7.39;51.68;101420.60;1773459;79;21143;-79
2020/12/07 02:12:29;;;;;;;7.80;5.90;;;;;;;7.39;51.68;101415.31;1783272;79;20964;-78
2020/12/07 02:14:57;;;;;;;6.85;5.45;;;;;;;7.37;51.69;101422.02;1763810;79;21113;-77
2020/12/07 02:17:24;;;;;;;8.88;6.53;;;;;;;7.37;51.66;101429.12;1767894;81;21195;-76
2020/12/07 02:19:52;;;;;;;8.15;5.92;;;;;;;7.36;51.64;101426.09;1770080;81;21646;-77
2020/12/07 02:22:19;;;;;;;7.53;5.45;;;;;;;7.34;51.63;101430.19;1767365;81;21138;-77
2020/12/07 02:25:05;;;;;;;7.87;5.90;;;;;;;7.34;51.58;101428.00;1749668;81;21113;-78
2020/12/07 02:27:33;;;;;;;8.75;6.03;;;;;;;7.33;51.57;101426.31;1759369;81;21142;-77
2020/12/07 02:30:02;;;;;;;8.05;6.00;;;;;;;7.30;51.58;101422.07;1753890;81;21192;-77
2020/12/07 02:32:30;;;;;;;7.30;4.92;;;;;;;7.29;51.54;101417.27;1753086;81;21389;-77
2020/12/07 02:35:12;;;;;;;7.62;5.40;;;;;;;7.33;51.54;101417.91;1810649;79;27305;-80
2020/12/07 02:37:42;;;;;;;9.43;6.70;;;;;;;7.28;51.51;101420.88;1781440;80;21573;-78
2020/12/07 02:40:10;;;;;;;7.05;5.70;;;;;;;7.26;51.50;101423.23;1752664;80;21382;-78
2020/12/07 02:42:39;;;;;;;7.42;5.72;;;;;;;7.25;51.48;101423.72;1795597;79;21175;-78
2020/12/07 02:45:13;;;;;;;8.20;5.97;;;;;;;7.23;51.48;101422.98;1781503;80;21154;-77
2020/12/07 02:47:43;;;;;;;7.00;5.62;;;;;;;7.23;51.47;101425.62;1810940;79;21627;-77
2020/12/07 02:50:12;;;;;;;6.65;5.40;;;;;;;7.22;51.44;101420.44;1765783;80;21125;-77
2020/12/07 02:52:40;;;;;;;8.00;5.97;;;;;;;7.21;51.44;101436.78;1768391;80;21388;-79
2020/12/07 02:55:10;;;;;;;7.80;5.62;;;;;;;7.20;51.43;101427.63;1771918;80;21160;-75
2020/12/07 02:57:39;;;;;;;7.72;5.62;;;;;;;7.19;51.43;101420.67;1778518;80;21163;-78
2020/12/07 03:00:09;;;;;;;7.85;5.90;;;;;;;7.18;51.39;101435.66;1785886;79;21163;-79
2020/12/07 03:02:38;;;;;;;7.42;5.72;;;;;;;7.18;51.35;101425.56;1765290;80;21187;-78
2020/12/07 03:05:07;;;;;;;7.53;5.47;;;;;;;7.17;51.33;101447.67;1773513;80;22685;-78
2020/12/07 03:07:36;;;;;;;9.08;6.10;;;;;;;7.17;51.31;101444.55;1770700;80;21615;-78
2020/12/07 03:10:05;;;;;;;9.63;6.00;;;;;;;7.15;51.29;101438.53;1759529;80;21555;-79
2020/12/07 03:12:34;;;;;;;6.80;4.70;;;;;;;7.15;51.27;101445.62;1760983;80;21206;-79
2020/12/07 03:15:03;;;;;;;8.10;5.67;;;;;;;7.13;51.27;101437.78;1774449;80;21148;-78
2020/12/07 03:17:32;;;;;;;6.37;4.92;;;;;;;7.13;51.25;101439.56;1765320;80;21379;-78
2020/12/07 03:20:00;;;;;;;6.95;5.25;;;;;;;7.12;51.25;101443.17;1756992;80;21192;-79
2020/12/07 03:22:28;;;;;;;7.17;4.97;;;;;;;7.11;51.22;101437.50;1764723;80;21602;-78
2020/12/07 03:24:57;;;;;;;8.65;5.80;;;;;;;7.10;51.22;101436.66;1767497;80;21107;-79
2020/12/07 03:27:24;;;;;;;6.83;5.58;;;;;;;7.08;51.19;101425.34;1762962;80;21200;-77
2020/12/07 03:29:53;;;;;;;6.37;4.97;;;;;;;7.08;51.20;101439.88;1766617;80;21127;-79
2020/12/07 03:32:22;;;;;;;7.25;5.55;;;;;;;7.08;51.15;101427.99;1763661;80;21171;-79
2020/12/07 03:34:50;;;;;;;7.50;6.10;;;;;;;7.07;51.13;101428.48;1779130;80;21119;-75
2020/12/07 03:37:18;;;;;;;8.18;6.28;;;;;;;7.07;51.12;101428.95;1792562;79;21176;-75
2020/12/07 03:39:50;;;;;;;7.83;5.12;;;;;;;7.06;51.06;101429.41;1796297;79;21139;-76
2020/12/07 03:42:17;;;;;;;7.10;5.17;;;;;;;7.06;51.07;101419.33;1763285;80;21608;-77
2020/12/07 03:44:46;;;;;;;6.58;5.17;;;;;;;7.05;51.04;101419.81;1769021;80;21194;-77
2020/12/07 03:47:14;;;;;;;7.60;6.00;;;;;;;7.05;51.02;101413.66;1760193;80;21569;-75
2020/12/07 03:49:48;;;;;;;8.65;6.00;;;;;;;7.04;50.99;101416.78;1785755;80;21729;-75
2020/12/07 03:52:15;;;;;;;7.65;5.62;;;;;;;7.03;50.96;101417.74;1783736;79;21199;-76
2020/12/07 03:54:43;;;;;;;7.03;4.95;;;;;;;7.02;50.95;101409.91;1788630;80;21344;-75
2020/12/07 03:57:11;;;;;;;8.03;5.80;;;;;;;7.00;50.95;101409.17;1762548;80;21128;-76
2020/12/07 03:59:41;;;;;;;7.15;5.20;;;;;;;7.00;50.91;101411.81;1764322;80;21135;-76
2020/12/07 04:02:09;;;;;;;5.83;4.97;;;;;;;6.99;50.90;101409.66;1765577;79;21149;-75
2020/12/07 04:04:52;;;;;;;6.55;5.00;;;;;;;6.98;50.87;101397.86;1772486;80;21153;-75
2020/12/07 04:07:17;;;;;;;7.62;5.78;;;;;;;6.96;50.83;101407.21;1786031;80;22700;-75
2020/12/07 04:09:47;;;;;;;7.10;5.17;;;;;;;6.95;50.81;101416.08;1772615;80;21153;-76
2020/12/07 04:12:14;;;;;;;7.22;5.35;;;;;;;6.95;50.81;101413.91;1757851;80;21177;-77
2020/12/07 04:14:43;;;;;;;7.15;5.47;;;;;;;6.93;50.82;101422.42;1772700;80;21576;-78
2020/12/07 04:17:10;;;;;;;7.12;5.33;;;;;;;6.93;50.81;101422.42;1778964;79;21142;-76
2020/12/07 04:19:37;;;;;;;6.70;4.78;;;;;;;6.85;50.77;101399.16;1760022;80;21547;-77
2020/12/07 04:22:04;;;;;;;8.35;5.10;;;;;;;6.91;50.75;101418.55;1771512;80;21174;-78
2020/12/07 04:24:32;;;;;;;7.17;5.03;;;;;;;6.91;50.74;101413.27;1777964;80;21168;-77
2020/12/07 04:26:59;;;;;;;6.67;5.17;;;;;;;6.91;50.73;101411.11;1768753;80;21170;-77
2020/12/07 04:29:27;;;;;;;8.48;6.00;;;;;;;6.89;50.69;101409.44;1770462;80;21126;-78
2020/12/07 04:31:55;;;;;;;6.58;5.22;;;;;;;6.89;50.66;101406.80;1777450;80;22666;-77
2020/12/07 04:34:22;;;;;;;6.67;5.22;;;;;;;6.88;50.62;101405.57;1781298;80;21177;-77
2020/12/07 04:36:55;;;;;;;8.05;5.30;;;;;;;6.88;50.62;101405.57;1769389;80;21169;-77
2020/12/07 04:39:22;;;;;;;8.60;5.22;;;;;;;6.87;50.64;101403.86;1785205;80;21166;-77
2020/12/07 04:41:50;;;;;;;7.42;5.42;;;;;;;6.85;50.62;101404.44;1779648;79;21441;-79
2020/12/07 04:44:18;;;;;;;8.03;5.55;;;;;;;6.84;50.59;101411.53;1764773;80;22668;-78
2020/12/07 04:46:46;;;;;;;7.62;5.37;;;;;;;6.84;50.57;101403.61;1777916;80;21570;-78
2020/12/07 04:49:15;;;;;;;6.62;5.05;;;;;;;6.83;50.57;101391.81;1775767;80;21155;-78
2020/12/07 04:51:43;;;;;;;8.00;5.53;;;;;;;6.83;50.56;101401.06;1781040;79;21175;-77
2020/12/07 04:54:10;;;;;;;6.45;4.97;;;;;;;6.83;50.54;101399.73;1759365;80;21171;-77
2020/12/07 04:56:38;;;;;;;7.35;5.70;;;;;;;6.82;50.50;101398.90;1795655;79;21401;-77
2020/12/07 04:59:07;;;;;;;5.67;4.72;;;;;;;6.81;50.46;101396.36;1744843;80;21209;-77
2020/12/07 05:01:38;;;;;;;6.12;5.42;;;;;;;6.80;50.47;101395.52;1755892;79;21186;-76
2020/12/07 05:04:05;;;;;;;7.03;5.00;;;;;;;6.80;50.43;101391.55;1792692;79;21130;-78
2020/12/07 05:06:33;;;;;;;7.00;5.45;;;;;;;6.79;50.37;101384.56;1792541;79;21146;-78
2020/12/07 05:09:01;;;;;;;7.10;5.05;;;;;;;6.79;50.36;101395.12;1761342;79;21806;-78
2020/12/07 05:11:29;;;;;;;7.28;5.22;;;;;;;6.79;50.33;101389.02;1770494;79;21546;-78
2020/12/07 05:14:05;;;;;;;7.92;5.85;;;;;;;6.78;50.30;101393.45;1772632;79;21125;-80
2020/12/07 05:16:29;;;;;;;7.30;5.55;;;;;;;6.77;50.30;101388.27;1737653;81;21619;-79
2020/12/07 05:18:57;;;;;;;6.17;5.17;;;;;;;6.77;50.27;101394.39;1767304;79;21123;-78
2020/12/07 05:21:24;;;;;;;8.08;5.92;;;;;;;6.76;50.28;101392.72;1771370;79;21817;-79
2020/12/07 05:23:52;;;;;;;7.17;5.42;;;;;;;6.75;50.25;101391.01;1784858;79;21135;-78
2020/12/07 05:26:21;;;;;;;7.40;5.67;;;;;;;6.74;50.25;101389.33;1787825;79;21547;-78
2020/12/07 05:28:51;;;;;;;6.97;5.03;;;;;;;6.74;50.22;101383.18;1770483;79;21176;-79
2020/12/07 05:31:19;;;;;;;7.47;5.15;;;;;;;6.73;50.21;101381.02;1769272;79;21191;-78
2020/12/07 05:33:47;;;;;;;7.17;5.53;;;;;;;6.71;50.22;101390.84;1763598;79;22138;-78
2020/12/07 05:36:15;;;;;;;7.65;5.72;;;;;;;6.71;50.18;101384.24;1765500;80;21212;-77
2020/12/07 05:38:43;;;;;;;7.53;5.50;;;;;;;6.71;50.19;101388.69;1773335;80;21584;-77
2020/12/07 05:41:11;;;;;;;7.20;5.53;;;;;;;6.69;50.16;101399.34;1769725;80;21115;-77
2020/12/07 05:43:38;;;;;;;6.37;5.35;;;;;;;6.69;50.15;101396.70;1754427;80;21251;-77
2020/12/07 05:46:06;;;;;;;6.42;5.70;;;;;;;6.69;50.14;101399.34;1756240;80;21217;-77
2020/12/07 05:48:35;;;;;;;7.97;6.00;;;;;;;6.68;50.12;101398.96;1775220;80;21162;-79
2020/12/07 05:51:07;;;;;;;7.62;5.78;;;;;;;6.68;50.13;101408.20;1773530;80;21608;-79
2020/12/07 05:53:37;;;;;;;7.97;5.72;;;;;;;6.66;50.11;101414.06;1770233;80;21142;-79
2020/12/07 05:56:07;;;;;;;8.93;5.85;;;;;;;6.66;50.10;101416.70;1777225;80;21147;-79
2020/12/07 05:58:56;;;;;;;7.78;5.75;;;;;;;6.65;50.08;101416.35;1761737;80;22514;-80
2020/12/07 06:01:26;;;;;;;7.85;5.60;;;;;;;6.65;50.11;101411.06;1770711;80;21131;-79
2020/12/07 06:03:55;;;;;;;7.33;5.45;;;;;;;6.63;50.09;101422.21;1777321;80;21211;-79
2020/12/07 06:06:33;;;;;;;7.40;5.70;;;;;;;6.61;50.10;101418.34;1768639;80;21155;-79
2020/12/07 06:09:07;;;;;;;7.55;5.87;;;;;;;6.60;50.07;101423.23;1771737;80;21773;-79
2020/12/07 06:11:42;;;;;;;6.85;5.05;;;;;;;6.60;50.06;101414.48;1783956;80;21446;-79
2020/12/07 06:14:09;;;;;;;8.85;6.00;;;;;;;6.60;50.07;101416.63;1730578;81;21599;-79
2020/12/07 06:16:37;;;;;;;8.20;5.45;;;;;;;6.59;50.06;101417.60;1759125;81;21163;-78
2020/12/07 06:19:15;;;;;;;7.95;5.37;;;;;;;6.59;50.04;101414.13;1760604;80;21203;-78
2020/12/07 06:21:49;;;;;;;11.50;7.00;;;;;;;6.58;50.00;101410.61;1766443;80;21163;-79
2020/12/07 06:24:16;;;;;;;8.18;5.60;;;;;;;6.58;50.01;101415.05;1775309;80;21214;-76
2020/12/07 06:26:44;;;;;;;7.85;5.87;;;;;;;6.57;50.00;101405.45;1788234;80;21401;-76
2020/12/07 06:29:13;;;;;;;7.85;5.72;;;;;;;6.56;50.00;101412.51;1790803;79;21729;-78
2020/12/07 06:31:41;;;;;;;7.35;6.05;;;;;;;6.58;49.98;101404.01;1773946;79;21614;-76
2020/12/07 06:34:10;;;;;;;8.35;5.90;;;;;;;6.58;49.94;101400.05;1674312;82;21147;-77
2020/12/07 06:36:38;;;;;;;7.20;5.62;;;;;;;6.58;49.93;101401.37;1743942;81;22266;-77
2020/12/07 06:39:10;;;;;;;7.12;5.62;;;;;;;6.59;49.93;101403.56;1763841;80;22058;-79
2020/12/07 06:41:46;;;;;;;7.95;6.03;;;;;;;6.58;49.90;101397.41;1761499;81;21145;-77
2020/12/07 06:44:18;;;;;;;7.83;5.83;;;;;;;6.59;49.89;101389.87;1765242;80;21195;-78
2020/12/07 06:47:09;;;;;;;7.90;6.05;;;;;;;6.59;49.87;101395.64;1734276;82;21502;-78
2020/12/07 06:49:49;;;;;;;9.48;5.55;;;;;;;6.60;49.87;101400.79;1750921;81;22682;-79
2020/12/07 06:52:11;;;;;;;6.85;5.17;;;;;;;6.59;49.85;101402.23;1733781;82;21161;-77
2020/12/07 06:57:28;;;;;;;7.80;5.60;;;;;;;6.60;49.84;101386.75;1770505;80;21163;-76
2020/12/07 07:00:12;;;;;;;7.97;5.42;;;;;;;6.60;49.85;101390.71;1777494;80;21202;-76
2020/12/07 07:02:48;;;;;;;8.40;6.15;;;;;;;6.61;49.83;101391.09;1763935;80;21355;-76
2020/12/07 07:05:18;;;;;;;7.62;5.47;;;;;;;6.61;49.82;101391.94;1767881;80;21199;-77
2020/12/07 07:07:45;;;;;;;9.20;6.03;;;;;;;6.62;49.81;101399.37;1737921;81;22069;-77
2020/12/07 07:10:14;;;;;;;7.75;5.67;;;;;;;6.63;49.79;101394.48;1737776;82;21182;-79
2020/12/07 07:12:43;;;;;;;8.58;5.37;;;;;;;6.65;49.77;101393.91;1734422;80;21609;-78
2020/12/07 07:15:11;;;;;;;8.80;5.55;;;;;;;6.66;49.77;101395.12;1723697;82;22122;-76
2020/12/07 07:17:42;;;;;;;7.90;6.05;;;;;;;6.68;49.76;101389.72;1734856;81;21180;-80
2020/12/07 07:20:13;;;;;;;6.87;5.22;;;;;;;6.70;49.71;101394.42;1740160;81;21151;-80
2020/12/07 07:22:47;;;;;;;7.35;5.47;;;;;;;6.71;49.71;101393.48;1769332;80;21272;-80
2020/12/07 07:30:24;;;;;;;8.83;5.45;;;;;;;6.76;49.61;101386.11;1746146;81;21199;-76
2020/12/07 07:32:54;;;;;;;6.83;5.37;;;;;;;6.76;49.59;101378.19;1761102;81;21159;-77
2020/12/07 07:35:23;;;;;;;8.40;5.65;;;;;;;6.77;49.55;101385.14;1768387;80;21159;-79
2020/12/07 07:37:50;;;;;;;8.03;4.75;;;;;;;6.79;49.56;101382.41;1782264;79;21155;-81
2020/12/07 07:40:23;;;;;;;6.45;5.05;;;;;;;6.81;49.50;101380.02;1774253;79;21381;-79
2020/12/07 07:43:00;;;;;;;7.17;5.35;;;;;;;6.84;49.48;101381.15;1784769;80;21241;-76
2020/12/07 07:45:35;;;;;;;6.80;5.62;;;;;;;6.85;49.46;101376.22;1787124;78;21148;-76
2020/12/07 07:48:12;;;;;;;7.10;5.40;;;;;;;6.86;49.44;101376.61;1783236;79;21170;-85
2020/12/07 08:16:20;;;;;;;7.22;5.80;;;;;;;6.99;49.30;101370.47;1779945;80;21171;-80
2020/12/07 08:18:58;;;;;;;7.12;5.08;;;;;;;7.00;49.26;101367.73;1756531;80;21190;-79
2020/12/07 08:21:27;;;;;;;7.42;5.47;;;;;;;7.04;49.24;101367.89;1769716;80;21294;-79
2020/12/07 08:23:58;;;;;;;11.38;5.70;;;;;;;7.07;49.27;101361.56;1796191;79;21155;-78
2020/12/07 08:26:26;;;;;;;6.95;5.62;;;;;;;7.11;49.25;101360.41;1805990;78;21619;-78
2020/12/07 08:28:54;;;;;;;6.33;5.15;;;;;;;7.17;49.21;101356.00;1790747;78;21143;-79
2020/12/07 08:31:22;;;;;;;7.33;5.72;;;;;;;7.24;49.14;101355.09;1794668;78;21331;-79
2020/12/07 08:34:06;;;;;;;7.12;5.67;;;;;;;7.31;49.11;101343.62;1771823;80;21370;-79
2020/12/07 08:36:34;;;;;;;7.58;5.78;;;;;;;7.39;49.04;101351.86;1780347;80;21135;-78
2020/12/07 08:39:03;;;;;;;7.28;5.10;;;;;;;7.51;48.91;101353.62;1770383;80;21155;-80
2020/12/07 08:41:34;;;;;;;6.37;5.25;;;;;;;7.65;48.79;101352.18;1768018;80;21167;-78
2020/12/07 08:44:07;;;;;;;7.50;5.30;;;;;;;7.82;48.66;101350.11;1802351;78;21115;-83
2020/12/07 08:46:38;;;;;;;6.80;5.05;;;;;;;7.97;48.60;101340.22;1809517;79;21339;-79
2020/12/07 08:49:06;;;;;;;7.25;4.87;;;;;;;8.11;48.47;101346.66;1797736;78;21155;-75
2020/12/07 08:51:36;;;;;;;6.33;4.67;;;;;;;8.25;48.35;101341.69;1802324;78;21120;-76
2020/12/07 08:54:04;;;;;;;8.13;5.72;;;;;;;8.38;48.52;101345.58;1812878;79;21131;-75
2020/12/07 08:56:32;;;;;;;6.60;4.60;;;;;;;8.47;48.70;101336.98;1771474;80;21137;-84
2020/12/07 08:58:59;;;;;;;7.33;5.53;;;;;;;8.56;48.84;101338.11;1771505;80;21814;-82
2020/12/07 09:01:26;;;;;;;6.72;4.95;;;;;;;8.62;48.88;101345.58;1775604;79;21638;-78
2020/12/07 09:03:54;;;;;;;7.10;5.00;;;;;;;8.69;48.76;101339.33;1774020;80;21147;-76
2020/12/07 09:06:21;;;;;;;6.87;4.92;;;;;;;8.75;48.68;101338.39;1765349;79;21108;-79
2020/12/07 09:08:49;;;;;;;6.70;4.78;;;;;;;8.82;48.58;101328.16;1792638;78;21167;-79
2020/12/07 09:11:20;;;;;;;6.25;4.92;;;;;;;8.88;48.46;101329.00;1811148;78;21644;-76
2020/12/07 09:13:47;;;;;;;6.62;4.92;;;;;;;8.96;48.37;101332.38;1812778;78;21223;-75
2020/12/07 09:16:15;;;;;;;8.00;4.83;;;;;;;9.03;48.25;101345.05;1795316;78;21159;-80
2020/12/07 09:18:42;;;;;;;7.42;4.80;;;;;;;9.08;48.24;101326.15;1811912;78;21200;-77
2020/12/07 09:21:11;;;;;;;6.95;5.05;;;;;;;9.14;48.07;101334.11;1808858;78;22089;-77
2020/12/07 09:23:39;;;;;;;6.62;4.80;;;;;;;9.17;48.03;101316.13;1813083;78;21340;-80
2020/12/07 09:26:07;;;;;;;7.33;5.35;;;;;;;9.22;47.89;101321.92;1796779;78;21618;-75
2020/12/07 09:28:36;;;;;;;5.67;4.90;;;;;;;9.30;47.82;101322.64;1804767;78;21133;-77
2020/12/07 09:31:05;;;;;;;6.60;4.78;;;;;;;9.36;47.74;101316.02;1812648;78;21698;-77
2020/12/07 09:33:35;;;;;;;7.17;5.10;;;;;;;9.42;47.65;101300.93;1801642;78;21187;-77
2020/12/07 09:36:03;;;;;;;6.40;4.72;;;;;;;9.49;47.45;101301.30;1815833;78;21352;-77
2020/12/07 09:38:32;;;;;;;7.05;5.20;;;;;;;9.55;47.32;101302.13;1801699;78;21112;-76
2020/12/07 09:40:59;;;;;;;7.62;5.03;;;;;;;9.60;47.18;101303.91;1806735;78;21545;-78
2020/12/07 09:43:27;;;;;;;6.25;5.37;;;;;;;9.65;47.10;101313.19;1808737;78;21168;-77
2020/12/07 09:45:55;;;;;;;6.17;4.45;;;;;;;9.71;47.06;101303.89;1812903;78;21163;-77
2020/12/07 09:48:22;;;;;;;5.17;3.95;;;;;;;9.76;47.03;101303.53;1811274;78;21920;-84
2020/12/07 09:50:50;;;;;;;6.25;4.60;;;;;;;9.80;46.96;101297.84;1806822;78;21131;-80
2020/12/07 09:53:19;;;;;;;7.47;4.95;;;;;;;9.87;46.94;101288.05;1809610;78;21151;-75
2020/12/07 09:55:47;;;;;;;6.67;4.72;;;;;;;9.91;46.81;101290.34;1766368;80;21128;-79
2020/12/07 09:58:15;;;;;;;6.45;4.55;;;;;;;9.98;46.76;101281.37;1747511;80;21606;-81
2020/12/07 10:00:42;;;;;;;6.10;4.80;;;;;;;10.04;46.68;101281.72;1765310;80;21803;-80
2020/12/07 10:03:10;;;;;;;6.22;4.80;;;;;;;10.10;46.67;101267.56;1775732;80;21707;-79
2020/12/07 10:05:37;;;;;;;6.00;4.83;;;;;;;10.16;46.57;101278.53;1809516;78;21151;-81
2020/12/07 10:08:04;;;;;;;8.50;5.37;;;;;;;10.22;46.49;101283.33;1811022;78;21147;-77
2020/12/07 10:10:32;;;;;;;6.37;5.17;;;;;;;10.29;46.51;101282.81;1759382;80;22503;-78
2020/12/07 10:13:02;;;;;;;5.75;4.30;;;;;;;10.36;46.46;101276.88;1782452;79;21358;-75
2020/12/07 10:15:29;;;;;;;5.20;4.20;;;;;;;10.42;46.43;101263.57;1781875;80;21202;-75
2020/12/07 10:17:56;;;;;;;5.85;4.97;;;;;;;10.49;46.53;101271.39;1767064;80;21155;-81
2020/12/07 10:20:23;;;;;;;5.87;4.83;;;;;;;10.55;46.54;101270.86;1806710;78;21143;-81
2020/12/07 10:22:51;;;;;;;5.87;4.53;;;;;;;10.63;46.52;101264.89;1812995;78;21119;-79
2020/12/07 10:25:18;;;;;;;5.55;4.53;;;;;;;10.70;46.49;101258.09;1802747;78;21603;-78
2020/12/07 10:30:38;;;;;;;6.03;4.60;;;;;;;10.90;46.57;101244.88;1751681;79;28234;-78
2020/12/07 10:33:05;;;;;;;6.33;5.15;;;;;;;10.89;46.49;101249.83;1735303;82;21544;-80
2020/12/07 10:35:34;;;;;;;6.30;5.10;;;;;;;10.96;46.33;101261.63;1755466;80;21403;-80
2020/12/07 10:38:04;;;;;;;5.60;4.85;;;;;;;11.02;46.13;101258.42;1744279;80;21173;-77
2020/12/07 10:40:31;;;;;;;7.03;4.85;;;;;;;11.08;46.12;101255.23;1748684;81;21621;-75
2020/12/07 10:42:58;;;;;;;6.80;5.30;;;;;;;11.14;46.13;101256.51;1748693;81;21158;-76
2020/12/07 10:45:25;;;;;;;6.90;5.10;;;;;;;11.23;46.13;101254.88;1739208;81;21123;-77
2020/12/07 10:47:55;;;;;;;5.90;4.33;;;;;;;11.30;46.14;101246.22;1750265;81;21206;-78
2020/12/07 10:50:24;;;;;;;5.67;4.83;;;;;;;11.41;46.16;101238.59;1717880;82;21172;-75
2020/12/07 10:52:52;;;;;;;6.00;4.37;;;;;;;11.52;46.15;101234.98;1746625;81;21705;-77
2020/12/07 10:55:19;;;;;;;5.87;4.72;;;;;;;11.64;46.06;101236.53;1753712;81;21118;-77
2020/12/07 10:57:48;;;;;;;5.33;4.53;;;;;;;11.75;45.88;101228.91;1741709;81;21167;-74
2020/12/07 11:00:15;;;;;;;6.80;5.17;;;;;;;11.88;45.71;101217.96;1791003;79;21790;-75
2020/12/07 11:02:43;;;;;;;5.92;4.75;;;;;;;12.00;45.57;101216.39;1757874;80;21725;-72
2020/12/07 11:05:10;;;;;;;6.50;4.87;;;;;;;12.13;45.49;101215.24;1733933;82;21176;-73
2020/12/07 11:07:38;;;;;;;5.70;4.67;;;;;;;12.25;45.38;101203.97;1793157;79;21642;-76
2020/12/07 11:10:06;;;;;;;5.55;4.58;;;;;;;12.35;45.39;101214.94;1782280;79;21132;-76
2020/12/07 11:12:34;;;;;;;5.87;4.33;;;;;;;12.44;45.21;101211.05;1780377;79;21805;-75
2020/12/07 11:15:01;;;;;;;7.03;4.90;;;;;;;12.48;45.00;101212.47;1763264;80;21175;-74
2020/12/07 11:17:29;;;;;;;5.58;4.62;;;;;;;12.53;44.86;101211.52;1774154;80;21169;-78
2020/12/07 11:19:56;;;;;;;5.67;4.08;;;;;;;12.57;44.85;101203.11;1746540;81;21159;-76
2020/12/07 11:22:23;;;;;;;4.92;4.42;;;;;;;12.61;44.90;101196.97;1738088;81;21216;-76
2020/12/07 11:24:50;;;;;;;5.42;4.15;;;;;;;12.64;44.87;101206.52;1732581;81;22276;-75
2020/12/07 11:27:19;;;;;;;8.28;4.58;;;;;;;12.65;44.92;101203.72;1712880;82;21254;-76
2020/12/07 11:29:47;;;;;;;5.08;4.35;;;;;;;12.66;44.79;101197.38;1734390;81;21245;-77
2020/12/07 11:32:14;;;;;;;6.47;5.17;;;;;;;12.67;44.79;101192.87;1714821;81;21189;-78
2020/12/07 11:34:41;;;;;;;5.50;4.17;;;;;;;12.67;44.67;101187.55;1738072;81;21808;-73
2020/12/07 11:37:09;;;;;;;5.95;4.47;;;;;;;12.65;44.62;101190.38;1729929;81;21206;-79
2020/12/07 11:39:49;;;;;;;5.45;4.50;;;;;;;12.59;44.60;101181.61;1738979;81;21185;-78
2020/12/07 11:42:34;;;;;;;6.15;4.87;;;;;;;12.63;44.47;101190.16;1758056;81;21125;-75
2020/12/07 11:44:53;;;;;;;5.65;4.60;;;;;;;12.59;44.41;101180.27;1751246;80;21497;-76
2020/12/07 11:47:21;;;;;;;8.28;5.67;;;;;;;12.54;44.37;101177.23;1754092;81;21368;-72
2020/12/07 11:49:49;;;;;;;5.42;4.58;;;;;;;12.51;44.29;101184.17;1737947;80;21135;-73
2020/12/07 11:52:16;;;;;;;6.60;4.55;;;;;;;12.47;44.27;101192.12;1735963;81;21157;-75
2020/12/07 11:54:43;;;;;;;6.22;5.00;;;;;;;12.43;44.22;101181.40;1759142;81;21176;-77
2020/12/07 11:57:11;;;;;;;7.25;4.58;;;;;;;12.37;44.24;101176.98;1750620;81;21153;-79
2020/12/07 11:59:38;;;;;;;6.47;4.53;;;;;;;12.33;44.20;101184.92;1727988;82;21118;-78
2020/12/07 12:02:05;;;;;;;7.25;5.25;;;;;;;12.28;44.22;101179.18;1734781;82;21372;-76
2020/12/07 12:04:33;;;;;;;6.92;5.10;;;;;;;12.23;44.21;101178.79;1741949;81;21177;-75
2020/12/07 12:07:00;;;;;;;6.17;4.55;;;;;;;12.18;44.22;101180.53;1716087;81;21178;-75
2020/12/07 12:09:28;;;;;;;6.95;5.00;;;;;;;12.13;44.18;101175.28;1738951;82;21118;-76
2020/12/07 12:11:57;;;;;;;7.08;4.83;;;;;;;12.08;44.20;101181.05;1744136;81;21178;-74
2020/12/07 12:14:25;;;;;;;7.50;4.92;;;;;;;12.02;44.14;101172.80;1735190;81;21211;-75
2020/12/07 12:16:53;;;;;;;7.17;4.80;;;;;;;11.96;44.20;101170.22;1776006;80;21181;-76